sensor_id;sensor_type;location;lat;lon;timestamp;temperature;humidity
14357;DHT22;7262;48.764;9.166;2023-03-04T00:02:21;1.60;99.90
14357;DHT22;7262;48.764;9.166;2023-03-04T00:04:48;1.60;99.90
14357;DHT22;7262;48.764;9.166;2023-03-04T00:07:15;1.60;99.90
14357;DHT22;7262;48.764;9.166;2023-03-04T00:09:44;1.60;99.90
14357;DHT22;7262;48.764;9.166;2023-03-04T00:12:11;1.60;99.90
14357;DHT22;7262;48.764;9.166;2023-03-04T00:14:38;1.60;99.90
14357;DHT22;7262;48.764;9.166;2023-03-04T00:17:05;1.50;99.90
14357;DHT22;7262;48.764;9.166;2023-03-04T00:19:31;1.50;99.90
14357;DHT22;7262;48.764;9.166;2023-03-04T00:21:59;1.50;99.90
14357;DHT22;7262;48.764;9.166;2023-03-04T00:24:26;1.50;99.90
14357;DHT22;7262;48.764;9.166;2023-03-04T00:26:54;1.40;99.90
14357;DHT22;7262;48.764;9.166;2023-03-04T00:29:20;1.40;99.90
14357;DHT22;7262;48.764;9.166;2023-03-04T00:31:47;1.30;99.90
14357;DHT22;7262;48.764;9.166;2023-03-04T00:34:14;1.30;99.90
14357;DHT22;7262;48.764;9.166;2023-03-04T00:36:41;1.30;99.90
14357;DHT22;7262;48.764;9.166;2023-03-04T00:39:08;1.30;99.90
14357;DHT22;7262;48.764;9.166;2023-03-04T00:41:35;1.20;99.90
14357;DHT22;7262;48.764;9.166;2023-03-04T00:44:04;1.10;99.90
14357;DHT22;7262;48.764;9.166;2023-03-04T00:46:31;1.10;99.90
14357;DHT22;7262;48.764;9.166;2023-03-04T00:48:57;1.10;99.90
14357;DHT22;7262;48.764;9.166;2023-03-04T00:51:24;1.10;99.90
14357;DHT22;7262;48.764;9.166;2023-03-04T00:53:51;1.10;99.90
14357;DHT22;7262;48.764;9.166;2023-03-04T00:56:17;1.10;99.90
14357;DHT22;7262;48.764;9.166;2023-03-04T00:58:44;1.10;99.90
14357;DHT22;7262;48.764;9.166;2023-03-04T01:01:12;1.00;99.90
14357;DHT22;7262;48.764;9.166;2023-03-04T01:03:43;1.00;99.90
14357;DHT22;7262;48.764;9.166;2023-03-04T01:06:19;1.00;99.90
14357;DHT22;7262;48.764;9.166;2023-03-04T01:08:45;1.10;99.90
14357;DHT22;7262;48.764;9.166;2023-03-04T01:11:13;1.00;99.90
14357;DHT22;7262;48.764;9.166;2023-03-04T01:13:41;1.00;99.90
14357;DHT22;7262;48.764;9.166;2023-03-04T01:16:07;1.00;99.90
14357;DHT22;7262;48.764;9.166;2023-03-04T01:18:36;0.90;99.90
14357;DHT22;7262;48.764;9.166;2023-03-04T01:21:03;0.90;99.90
14357;DHT22;7262;48.764;9.166;2023-03-04T01:23:30;0.90;99.90
14357;DHT22;7262;48.764;9.166;2023-03-04T01:25:57;1.00;99.90
14357;DHT22;7262;48.764;9.166;2023-03-04T01:28:24;0.90;99.90
14357;DHT22;7262;48.764;9.166;2023-03-04T01:30:51;0.80;99.90
14357;DHT22;7262;48.764;9.166;2023-03-04T01:33:18;0.80;99.90
14357;DHT22;7262;48.764;9.166;2023-03-04T01:35:48;0.90;99.90
14357;DHT22;7262;48.764;9.166;2023-03-04T01:38:15;0.80;99.90
14357;DHT22;7262;48.764;9.166;2023-03-04T01:40:45;0.80;99.90
14357;DHT22;7262;48.764;9.166;2023-03-04T01:43:15;0.80;99.90
14357;DHT22;7262;48.764;9.166;2023-03-04T01:45:44;0.80;99.90
14357;DHT22;7262;48.764;9.166;2023-03-04T01:48:11;0.80;99.90
14357;DHT22;7262;48.764;9.166;2023-03-04T01:50:39;0.70;99.90
14357;DHT22;7262;48.764;9.166;2023-03-04T01:53:10;0.60;99.90
14357;DHT22;7262;48.764;9.166;2023-03-04T01:55:40;0.60;99.90
14357;DHT22;7262;48.764;9.166;2023-03-04T01:58:08;0.50;99.90
14357;DHT22;7262;48.764;9.166;2023-03-04T02:00:35;0.50;99.90
14357;DHT22;7262;48.764;9.166;2023-03-04T02:03:03;0.50;99.90
14357;DHT22;7262;48.764;9.166;2023-03-04T02:05:31;0.50;99.90
14357;DHT22;7262;48.764;9.166;2023-03-04T02:07:58;0.50;99.90
14357;DHT22;7262;48.764;9.166;2023-03-04T02:10:27;0.50;99.90
14357;DHT22;7262;48.764;9.166;2023-03-04T02:12:54;0.50;99.90
14357;DHT22;7262;48.764;9.166;2023-03-04T02:15:22;0.60;99.90
14357;DHT22;7262;48.764;9.166;2023-03-04T02:17:48;0.60;99.90
14357;DHT22;7262;48.764;9.166;2023-03-04T02:20:22;0.50;99.90
14357;DHT22;7262;48.764;9.166;2023-03-04T02:22:53;0.50;99.90
14357;DHT22;7262;48.764;9.166;2023-03-04T02:25:22;0.50;99.90
14357;DHT22;7262;48.764;9.166;2023-03-04T02:27:51;0.40;99.90
14357;DHT22;7262;48.764;9.166;2023-03-04T02:30:19;0.40;99.90
14357;DHT22;7262;48.764;9.166;2023-03-04T02:32:50;0.40;99.90
14357;DHT22;7262;48.764;9.166;2023-03-04T02:35:17;0.40;99.90
14357;DHT22;7262;48.764;9.166;2023-03-04T02:37:44;0.40;99.90
14357;DHT22;7262;48.764;9.166;2023-03-04T02:40:12;0.40;99.90
14357;DHT22;7262;48.764;9.166;2023-03-04T02:42:41;0.30;99.90
14357;DHT22;7262;48.764;9.166;2023-03-04T02:47:51;0.30;99.90
14357;DHT22;7262;48.764;9.166;2023-03-04T02:50:18;0.40;99.90
14357;DHT22;7262;48.764;9.166;2023-03-04T02:52:45;0.40;99.90
14357;DHT22;7262;48.764;9.166;2023-03-04T02:55:12;0.40;99.90
14357;DHT22;7262;48.764;9.166;2023-03-04T02:57:38;0.30;99.90
14357;DHT22;7262;48.764;9.166;2023-03-04T03:00:05;0.30;99.90
14357;DHT22;7262;48.764;9.166;2023-03-04T03:02:32;0.30;99.90
14357;DHT22;7262;48.764;9.166;2023-03-04T03:05:00;0.30;99.90
14357;DHT22;7262;48.764;9.166;2023-03-04T03:07:27;0.30;99.90
14357;DHT22;7262;48.764;9.166;2023-03-04T03:09:54;0.40;99.90
14357;DHT22;7262;48.764;9.166;2023-03-04T03:12:21;0.30;99.90
14357;DHT22;7262;48.764;9.166;2023-03-04T03:14:47;0.40;99.90
14357;DHT22;7262;48.764;9.166;2023-03-04T03:17:14;0.30;99.90
14357;DHT22;7262;48.764;9.166;2023-03-04T03:19:41;0.30;99.90
14357;DHT22;7262;48.764;9.166;2023-03-04T03:22:09;0.30;99.90
14357;DHT22;7262;48.764;9.166;2023-03-04T03:24:37;0.30;99.90
14357;DHT22;7262;48.764;9.166;2023-03-04T03:27:03;0.30;99.90
14357;DHT22;7262;48.764;9.166;2023-03-04T03:29:30;0.30;99.90
14357;DHT22;7262;48.764;9.166;2023-03-04T03:31:57;0.30;99.90
14357;DHT22;7262;48.764;9.166;2023-03-04T03:34:23;0.30;99.90
14357;DHT22;7262;48.764;9.166;2023-03-04T03:36:50;0.30;99.90
14357;DHT22;7262;48.764;9.166;2023-03-04T03:39:18;0.30;99.90
14357;DHT22;7262;48.764;9.166;2023-03-04T03:41:45;0.20;99.90
14357;DHT22;7262;48.764;9.166;2023-03-04T03:44:12;0.30;99.90
14357;DHT22;7262;48.764;9.166;2023-03-04T03:46:38;0.30;99.90
14357;DHT22;7262;48.764;9.166;2023-03-04T03:49:05;0.20;99.90
14357;DHT22;7262;48.764;9.166;2023-03-04T03:51:32;0.20;99.90
14357;DHT22;7262;48.764;9.166;2023-03-04T03:53:58;0.30;99.90
14357;DHT22;7262;48.764;9.166;2023-03-04T03:56:27;0.20;99.90
14357;DHT22;7262;48.764;9.166;2023-03-04T03:58:53;0.20;99.90
14357;DHT22;7262;48.764;9.166;2023-03-04T04:01:20;0.20;99.90
14357;DHT22;7262;48.764;9.166;2023-03-04T04:03:47;0.10;99.90
14357;DHT22;7262;48.764;9.166;2023-03-04T04:06:13;0.10;99.90
14357;DHT22;7262;48.764;9.166;2023-03-04T04:08:40;0.20;99.90
14357;DHT22;7262;48.764;9.166;2023-03-04T04:11:07;0.20;99.90
14357;DHT22;7262;48.764;9.166;2023-03-04T04:13:35;0.20;99.90
14357;DHT22;7262;48.764;9.166;2023-03-04T04:16:02;0.20;99.90
14357;DHT22;7262;48.764;9.166;2023-03-04T04:18:29;0.20;99.90
14357;DHT22;7262;48.764;9.166;2023-03-04T04:20:56;0.20;99.90
14357;DHT22;7262;48.764;9.166;2023-03-04T04:23:23;0.20;99.90
14357;DHT22;7262;48.764;9.166;2023-03-04T04:25:49;0.20;99.90
14357;DHT22;7262;48.764;9.166;2023-03-04T04:28:16;0.10;99.90
14357;DHT22;7262;48.764;9.166;2023-03-04T04:30:44;0.10;99.90
14357;DHT22;7262;48.764;9.166;2023-03-04T04:33:11;0.10;99.90
14357;DHT22;7262;48.764;9.166;2023-03-04T04:35:37;0.10;99.90
14357;DHT22;7262;48.764;9.166;2023-03-04T04:38:04;0.00;99.90
14357;DHT22;7262;48.764;9.166;2023-03-04T04:40:31;0.00;99.90
14357;DHT22;7262;48.764;9.166;2023-03-04T04:42:58;0.00;99.90
14357;DHT22;7262;48.764;9.166;2023-03-04T04:45:24;0.10;99.90
14357;DHT22;7262;48.764;9.166;2023-03-04T04:47:53;0.00;99.90
14357;DHT22;7262;48.764;9.166;2023-03-04T04:50:22;0.00;99.90
14357;DHT22;7262;48.764;9.166;2023-03-04T04:52:48;0.00;99.90
14357;DHT22;7262;48.764;9.166;2023-03-04T04:55:15;0.00;99.90
14357;DHT22;7262;48.764;9.166;2023-03-04T04:57:42;0.00;99.90
14357;DHT22;7262;48.764;9.166;2023-03-04T05:00:09;0.10;99.90
14357;DHT22;7262;48.764;9.166;2023-03-04T05:02:37;0.00;99.90
14357;DHT22;7262;48.764;9.166;2023-03-04T05:05:05;0.00;99.90
14357;DHT22;7262;48.764;9.166;2023-03-04T05:07:32;0.00;99.90
14357;DHT22;7262;48.764;9.166;2023-03-04T05:09:59;0.00;99.90
14357;DHT22;7262;48.764;9.166;2023-03-04T05:12:26;0.00;99.90
14357;DHT22;7262;48.764;9.166;2023-03-04T05:14:53;0.00;99.90
14357;DHT22;7262;48.764;9.166;2023-03-04T05:17:19;0.00;99.90
14357;DHT22;7262;48.764;9.166;2023-03-04T05:19:46;-0.10;99.90
14357;DHT22;7262;48.764;9.166;2023-03-04T05:22:14;-0.10;99.90
14357;DHT22;7262;48.764;9.166;2023-03-04T05:24:41;-0.10;99.90
14357;DHT22;7262;48.764;9.166;2023-03-04T05:27:07;-0.20;99.90
14357;DHT22;7262;48.764;9.166;2023-03-04T05:29:34;-0.20;99.90
14357;DHT22;7262;48.764;9.166;2023-03-04T05:32:01;-0.30;99.90
14357;DHT22;7262;48.764;9.166;2023-03-04T05:34:27;-0.30;99.90
14357;DHT22;7262;48.764;9.166;2023-03-04T05:36:54;-0.30;99.90
14357;DHT22;7262;48.764;9.166;2023-03-04T05:39:22;-0.40;99.90
14357;DHT22;7262;48.764;9.166;2023-03-04T05:41:49;-0.40;99.90
14357;DHT22;7262;48.764;9.166;2023-03-04T05:44:17;-0.30;99.90
14357;DHT22;7262;48.764;9.166;2023-03-04T05:46:43;-0.40;99.90
14357;DHT22;7262;48.764;9.166;2023-03-04T05:49:10;-0.40;99.90
14357;DHT22;7262;48.764;9.166;2023-03-04T05:51:37;-0.40;99.90
14357;DHT22;7262;48.764;9.166;2023-03-04T05:54:04;-0.40;99.90
14357;DHT22;7262;48.764;9.166;2023-03-04T05:56:32;-0.40;99.90
14357;DHT22;7262;48.764;9.166;2023-03-04T05:58:58;-0.40;99.90
14357;DHT22;7262;48.764;9.166;2023-03-04T06:01:25;-0.30;99.90
14357;DHT22;7262;48.764;9.166;2023-03-04T06:03:52;-0.30;99.90
14357;DHT22;7262;48.764;9.166;2023-03-04T06:06:19;-0.40;99.90
14357;DHT22;7262;48.764;9.166;2023-03-04T06:08:45;-0.40;99.90
14357;DHT22;7262;48.764;9.166;2023-03-04T06:11:12;-0.40;99.90
14357;DHT22;7262;48.764;9.166;2023-03-04T06:13:40;-0.40;99.90
14357;DHT22;7262;48.764;9.166;2023-03-04T06:16:08;-0.40;99.90
14357;DHT22;7262;48.764;9.166;2023-03-04T06:18:34;-0.30;99.90
14357;DHT22;7262;48.764;9.166;2023-03-04T06:21:01;-0.30;99.90
14357;DHT22;7262;48.764;9.166;2023-03-04T06:23:28;-0.30;99.90
14357;DHT22;7262;48.764;9.166;2023-03-04T06:25:56;-0.30;99.90
14357;DHT22;7262;48.764;9.166;2023-03-04T06:28:23;-0.30;99.90
14357;DHT22;7262;48.764;9.166;2023-03-04T06:30:51;-0.30;99.90
14357;DHT22;7262;48.764;9.166;2023-03-04T06:33:19;-0.30;99.90
14357;DHT22;7262;48.764;9.166;2023-03-04T06:35:46;-0.20;99.90
14357;DHT22;7262;48.764;9.166;2023-03-04T06:38:12;-0.20;99.90
14357;DHT22;7262;48.764;9.166;2023-03-04T06:40:39;-0.20;99.90
14357;DHT22;7262;48.764;9.166;2023-03-04T06:43:06;-0.20;99.90
14357;DHT22;7262;48.764;9.166;2023-03-04T06:45:32;0.00;99.90
14357;DHT22;7262;48.764;9.166;2023-03-04T06:48:00;-0.10;99.90
14357;DHT22;7262;48.764;9.166;2023-03-04T06:50:27;0.00;99.90
14357;DHT22;7262;48.764;9.166;2023-03-04T06:52:55;0.00;99.90
14357;DHT22;7262;48.764;9.166;2023-03-04T06:55:21;0.10;99.90
14357;DHT22;7262;48.764;9.166;2023-03-04T06:57:48;0.10;99.90
14357;DHT22;7262;48.764;9.166;2023-03-04T07:00:16;0.20;99.90
14357;DHT22;7262;48.764;9.166;2023-03-04T07:02:43;0.30;99.90
14357;DHT22;7262;48.764;9.166;2023-03-04T07:05:11;0.40;99.90
14357;DHT22;7262;48.764;9.166;2023-03-04T07:07:38;0.60;99.90
14357;DHT22;7262;48.764;9.166;2023-03-04T07:10:06;0.70;99.90
14357;DHT22;7262;48.764;9.166;2023-03-04T07:12:34;0.80;99.90
14357;DHT22;7262;48.764;9.166;2023-03-04T07:15:01;0.90;99.90
14357;DHT22;7262;48.764;9.166;2023-03-04T07:17:27;1.00;99.90
14357;DHT22;7262;48.764;9.166;2023-03-04T07:19:54;1.00;99.90
14357;DHT22;7262;48.764;9.166;2023-03-04T07:22:22;1.10;99.90
14357;DHT22;7262;48.764;9.166;2023-03-04T07:24:49;1.20;99.90
14357;DHT22;7262;48.764;9.166;2023-03-04T07:27:16;1.30;99.90
14357;DHT22;7262;48.764;9.166;2023-03-04T07:29:43;1.30;99.90
14357;DHT22;7262;48.764;9.166;2023-03-04T07:32:10;1.30;99.90
14357;DHT22;7262;48.764;9.166;2023-03-04T07:34:37;1.20;99.90
14357;DHT22;7262;48.764;9.166;2023-03-04T07:37:04;1.30;99.90
14357;DHT22;7262;48.764;9.166;2023-03-04T07:39:32;1.40;99.90
14357;DHT22;7262;48.764;9.166;2023-03-04T07:41:59;1.20;99.90
14357;DHT22;7262;48.764;9.166;2023-03-04T07:44:26;1.10;99.90
14357;DHT22;7262;48.764;9.166;2023-03-04T07:46:53;1.20;99.90
14357;DHT22;7262;48.764;9.166;2023-03-04T07:49:19;1.20;99.90
14357;DHT22;7262;48.764;9.166;2023-03-04T07:51:46;1.30;99.90
14357;DHT22;7262;48.764;9.166;2023-03-04T07:54:14;1.30;99.90
14357;DHT22;7262;48.764;9.166;2023-03-04T07:56:42;1.20;99.90
14357;DHT22;7262;48.764;9.166;2023-03-04T07:59:09;1.20;99.90
14357;DHT22;7262;48.764;9.166;2023-03-04T08:01:36;1.30;99.90
14357;DHT22;7262;48.764;9.166;2023-03-04T08:04:04;1.30;99.90
14357;DHT22;7262;48.764;9.166;2023-03-04T08:06:31;1.30;99.90
14357;DHT22;7262;48.764;9.166;2023-03-04T08:08:58;1.20;99.90
14357;DHT22;7262;48.764;9.166;2023-03-04T08:11:26;1.30;99.90
14357;DHT22;7262;48.764;9.166;2023-03-04T08:13:55;1.30;99.90
14357;DHT22;7262;48.764;9.166;2023-03-04T08:16:22;1.20;99.90
14357;DHT22;7262;48.764;9.166;2023-03-04T08:18:50;1.20;99.90
14357;DHT22;7262;48.764;9.166;2023-03-04T08:21:17;1.20;99.90
14357;DHT22;7262;48.764;9.166;2023-03-04T08:23:47;1.40;99.90
14357;DHT22;7262;48.764;9.166;2023-03-04T08:26:15;1.50;99.90
14357;DHT22;7262;48.764;9.166;2023-03-04T08:28:42;1.60;99.90
14357;DHT22;7262;48.764;9.166;2023-03-04T08:31:12;1.70;99.90
14357;DHT22;7262;48.764;9.166;2023-03-04T08:33:38;1.60;99.90
14357;DHT22;7262;48.764;9.166;2023-03-04T08:36:05;1.40;99.90
14357;DHT22;7262;48.764;9.166;2023-03-04T08:38:32;1.30;99.90
14357;DHT22;7262;48.764;9.166;2023-03-04T08:40:59;1.30;99.90
14357;DHT22;7262;48.764;9.166;2023-03-04T08:43:27;1.50;99.90
14357;DHT22;7262;48.764;9.166;2023-03-04T08:45:54;1.70;99.90
14357;DHT22;7262;48.764;9.166;2023-03-04T08:48:22;1.60;99.90
14357;DHT22;7262;48.764;9.166;2023-03-04T08:50:49;1.50;99.90
14357;DHT22;7262;48.764;9.166;2023-03-04T08:53:16;1.60;99.90
14357;DHT22;7262;48.764;9.166;2023-03-04T08:55:44;1.70;99.90
14357;DHT22;7262;48.764;9.166;2023-03-04T08:58:11;1.50;99.90
14357;DHT22;7262;48.764;9.166;2023-03-04T09:00:40;1.70;99.90
14357;DHT22;7262;48.764;9.166;2023-03-04T09:03:09;1.60;99.90
14357;DHT22;7262;48.764;9.166;2023-03-04T09:05:39;1.80;99.90
14357;DHT22;7262;48.764;9.166;2023-03-04T09:08:06;1.90;99.90
14357;DHT22;7262;48.764;9.166;2023-03-04T09:10:33;1.80;99.90
14357;DHT22;7262;48.764;9.166;2023-03-04T09:12:59;2.00;99.90
14357;DHT22;7262;48.764;9.166;2023-03-04T09:15:26;2.20;99.90
14357;DHT22;7262;48.764;9.166;2023-03-04T09:17:53;2.30;99.90
14357;DHT22;7262;48.764;9.166;2023-03-04T09:20:20;2.30;99.90
14357;DHT22;7262;48.764;9.166;2023-03-04T09:22:49;2.30;99.90
14357;DHT22;7262;48.764;9.166;2023-03-04T09:25:15;2.30;99.90
14357;DHT22;7262;48.764;9.166;2023-03-04T09:27:42;2.30;99.90
14357;DHT22;7262;48.764;9.166;2023-03-04T09:30:10;2.30;99.90
14357;DHT22;7262;48.764;9.166;2023-03-04T09:32:37;2.40;99.90
14357;DHT22;7262;48.764;9.166;2023-03-04T09:35:04;2.40;99.90
14357;DHT22;7262;48.764;9.166;2023-03-04T09:37:32;2.50;99.90
14357;DHT22;7262;48.764;9.166;2023-03-04T09:40:03;2.60;99.90
14357;DHT22;7262;48.764;9.166;2023-03-04T09:42:32;2.50;99.90
14357;DHT22;7262;48.764;9.166;2023-03-04T09:44:59;2.40;99.90
14357;DHT22;7262;48.764;9.166;2023-03-04T09:47:27;2.30;99.90
14357;DHT22;7262;48.764;9.166;2023-03-04T09:49:57;2.30;99.90
14357;DHT22;7262;48.764;9.166;2023-03-04T09:52:28;2.20;99.90
14357;DHT22;7262;48.764;9.166;2023-03-04T09:55:04;2.30;99.90
14357;DHT22;7262;48.764;9.166;2023-03-04T09:57:39;2.40;99.90
14357;DHT22;7262;48.764;9.166;2023-03-04T10:00:10;2.40;99.90
14357;DHT22;7262;48.764;9.166;2023-03-04T10:02:51;2.40;99.90
14357;DHT22;7262;48.764;9.166;2023-03-04T10:05:20;2.70;99.90
14357;DHT22;7262;48.764;9.166;2023-03-04T10:07:53;3.10;99.90
14357;DHT22;7262;48.764;9.166;2023-03-04T10:10:25;3.40;99.90
14357;DHT22;7262;48.764;9.166;2023-03-04T10:12:54;3.70;99.90
14357;DHT22;7262;48.764;9.166;2023-03-04T10:15:25;3.80;99.90
14357;DHT22;7262;48.764;9.166;2023-03-04T10:17:55;3.80;99.90
14357;DHT22;7262;48.764;9.166;2023-03-04T10:20:23;3.70;99.90
14357;DHT22;7262;48.764;9.166;2023-03-04T10:22:51;3.90;99.90
14357;DHT22;7262;48.764;9.166;2023-03-04T10:25:19;3.70;99.90
14357;DHT22;7262;48.764;9.166;2023-03-04T10:27:50;3.90;99.90
14357;DHT22;7262;48.764;9.166;2023-03-04T10:30:19;4.00;99.90
14357;DHT22;7262;48.764;9.166;2023-03-04T10:32:48;3.90;99.90
14357;DHT22;7262;48.764;9.166;2023-03-04T10:35:15;3.90;99.90
14357;DHT22;7262;48.764;9.166;2023-03-04T10:37:43;4.20;99.90
14357;DHT22;7262;48.764;9.166;2023-03-04T10:40:17;4.10;99.90
14357;DHT22;7262;48.764;9.166;2023-03-04T10:42:44;4.20;99.90
14357;DHT22;7262;48.764;9.166;2023-03-04T10:45:20;4.10;99.90
14357;DHT22;7262;48.764;9.166;2023-03-04T10:47:53;3.90;99.90
14357;DHT22;7262;48.764;9.166;2023-03-04T10:50:21;4.00;99.90
14357;DHT22;7262;48.764;9.166;2023-03-04T10:52:49;4.10;99.90
14357;DHT22;7262;48.764;9.166;2023-03-04T10:55:18;4.10;99.90
14357;DHT22;7262;48.764;9.166;2023-03-04T10:57:47;4.30;99.90
14357;DHT22;7262;48.764;9.166;2023-03-04T11:00:22;4.30;99.90
14357;DHT22;7262;48.764;9.166;2023-03-04T11:02:49;4.50;99.90
14357;DHT22;7262;48.764;9.166;2023-03-04T11:05:17;4.70;99.90
14357;DHT22;7262;48.764;9.166;2023-03-04T11:07:44;4.50;99.90
14357;DHT22;7262;48.764;9.166;2023-03-04T11:10:15;4.30;99.90
14357;DHT22;7262;48.764;9.166;2023-03-04T11:12:46;4.20;99.90
14357;DHT22;7262;48.764;9.166;2023-03-04T11:15:17;4.30;99.90
14357;DHT22;7262;48.764;9.166;2023-03-04T11:17:47;4.30;99.90
14357;DHT22;7262;48.764;9.166;2023-03-04T11:20:16;4.30;99.90
14357;DHT22;7262;48.764;9.166;2023-03-04T11:22:44;4.40;99.90
14357;DHT22;7262;48.764;9.166;2023-03-04T11:25:17;4.40;99.90
14357;DHT22;7262;48.764;9.166;2023-03-04T11:27:46;4.40;99.90
14357;DHT22;7262;48.764;9.166;2023-03-04T11:33:04;4.40;99.90
14357;DHT22;7262;48.764;9.166;2023-03-04T11:35:37;4.40;99.90
14357;DHT22;7262;48.764;9.166;2023-03-04T11:38:05;4.50;99.90
14357;DHT22;7262;48.764;9.166;2023-03-04T11:40:34;4.30;99.90
14357;DHT22;7262;48.764;9.166;2023-03-04T11:43:03;4.30;99.90
14357;DHT22;7262;48.764;9.166;2023-03-04T11:45:37;4.50;99.90
14357;DHT22;7262;48.764;9.166;2023-03-04T11:48:08;4.30;99.90
14357;DHT22;7262;48.764;9.166;2023-03-04T11:50:40;4.10;99.90
14357;DHT22;7262;48.764;9.166;2023-03-04T11:53:18;4.30;99.90
14357;DHT22;7262;48.764;9.166;2023-03-04T11:55:47;4.30;99.90
14357;DHT22;7262;48.764;9.166;2023-03-04T11:58:26;4.30;99.90
14357;DHT22;7262;48.764;9.166;2023-03-04T12:01:01;4.40;99.90
14357;DHT22;7262;48.764;9.166;2023-03-04T12:06:20;4.40;99.90
14357;DHT22;7262;48.764;9.166;2023-03-04T12:08:52;4.50;99.90
14357;DHT22;7262;48.764;9.166;2023-03-04T12:11:27;4.60;99.90
14357;DHT22;7262;48.764;9.166;2023-03-04T12:14:00;4.70;99.90
14357;DHT22;7262;48.764;9.166;2023-03-04T12:16:47;4.40;99.90
14357;DHT22;7262;48.764;9.166;2023-03-04T12:19:21;4.20;99.90
14357;DHT22;7262;48.764;9.166;2023-03-04T12:22:05;4.40;99.90
14357;DHT22;7262;48.764;9.166;2023-03-04T12:24:38;4.60;99.90
14357;DHT22;7262;48.764;9.166;2023-03-04T12:27:10;4.50;99.90
14357;DHT22;7262;48.764;9.166;2023-03-04T12:29:41;4.40;99.90
14357;DHT22;7262;48.764;9.166;2023-03-04T12:32:12;4.40;99.90
14357;DHT22;7262;48.764;9.166;2023-03-04T12:34:55;4.20;99.90
14357;DHT22;7262;48.764;9.166;2023-03-04T12:37:31;4.20;99.90
14357;DHT22;7262;48.764;9.166;2023-03-04T12:40:05;4.30;99.90
14357;DHT22;7262;48.764;9.166;2023-03-04T12:42:35;4.30;99.90
14357;DHT22;7262;48.764;9.166;2023-03-04T12:45:05;4.50;99.90
14357;DHT22;7262;48.764;9.166;2023-03-04T12:47:42;4.50;99.90
14357;DHT22;7262;48.764;9.166;2023-03-04T12:50:18;4.40;99.90
14357;DHT22;7262;48.764;9.166;2023-03-04T12:52:52;4.20;99.90
14357;DHT22;7262;48.764;9.166;2023-03-04T12:55:21;4.30;99.90
14357;DHT22;7262;48.764;9.166;2023-03-04T12:57:49;4.20;99.90
14357;DHT22;7262;48.764;9.166;2023-03-04T13:00:19;4.20;99.90
14357;DHT22;7262;48.764;9.166;2023-03-04T13:02:50;4.40;99.90
14357;DHT22;7262;48.764;9.166;2023-03-04T13:05:23;4.50;99.90
14357;DHT22;7262;48.764;9.166;2023-03-04T13:07:53;4.40;99.90
14357;DHT22;7262;48.764;9.166;2023-03-04T13:10:21;4.30;99.90
14357;DHT22;7262;48.764;9.166;2023-03-04T13:12:50;4.30;99.90
14357;DHT22;7262;48.764;9.166;2023-03-04T13:15:29;4.20;99.90
14357;DHT22;7262;48.764;9.166;2023-03-04T13:17:56;4.10;99.90
14357;DHT22;7262;48.764;9.166;2023-03-04T13:20:31;4.10;99.90
14357;DHT22;7262;48.764;9.166;2023-03-04T13:22:59;4.10;99.90
14357;DHT22;7262;48.764;9.166;2023-03-04T13:25:40;4.20;99.90
14357;DHT22;7262;48.764;9.166;2023-03-04T13:36:32;3.80;99.90
14357;DHT22;7262;48.764;9.166;2023-03-04T13:39:01;3.80;99.90
14357;DHT22;7262;48.764;9.166;2023-03-04T13:41:29;3.80;99.90
14357;DHT22;7262;48.764;9.166;2023-03-04T13:43:57;3.90;99.90
14357;DHT22;7262;48.764;9.166;2023-03-04T13:46:28;4.00;99.90
14357;DHT22;7262;48.764;9.166;2023-03-04T13:48:59;4.00;99.90
14357;DHT22;7262;48.764;9.166;2023-03-04T13:51:28;3.80;99.90
14357;DHT22;7262;48.764;9.166;2023-03-04T13:54:10;3.90;99.90
14357;DHT22;7262;48.764;9.166;2023-03-04T13:56:39;4.20;99.90
14357;DHT22;7262;48.764;9.166;2023-03-04T13:59:17;4.30;99.90
14357;DHT22;7262;48.764;9.166;2023-03-04T14:01:53;4.20;99.90
14357;DHT22;7262;48.764;9.166;2023-03-04T14:04:22;4.10;99.90
14357;DHT22;7262;48.764;9.166;2023-03-04T14:06:49;4.10;99.90
14357;DHT22;7262;48.764;9.166;2023-03-04T14:09:19;4.00;99.90
14357;DHT22;7262;48.764;9.166;2023-03-04T18:39:46;3.70;99.90
14357;DHT22;7262;48.764;9.166;2023-03-04T18:42:13;3.70;99.90
14357;DHT22;7262;48.764;9.166;2023-03-04T18:44:39;3.80;99.90
14357;DHT22;7262;48.764;9.166;2023-03-04T18:47:06;3.70;99.90
14357;DHT22;7262;48.764;9.166;2023-03-04T18:49:35;3.70;99.90
14357;DHT22;7262;48.764;9.166;2023-03-04T18:52:05;3.80;99.90
14357;DHT22;7262;48.764;9.166;2023-03-04T18:54:32;3.70;99.90
14357;DHT22;7262;48.764;9.166;2023-03-04T18:57:01;3.80;99.90
14357;DHT22;7262;48.764;9.166;2023-03-04T18:59:29;3.80;99.90
14357;DHT22;7262;48.764;9.166;2023-03-04T19:02:01;3.90;99.90
14357;DHT22;7262;48.764;9.166;2023-03-04T19:04:30;3.80;99.90
14357;DHT22;7262;48.764;9.166;2023-03-04T19:06:58;3.70;99.90
14357;DHT22;7262;48.764;9.166;2023-03-04T19:09:25;3.80;99.90
14357;DHT22;7262;48.764;9.166;2023-03-04T19:11:51;3.90;99.90
14357;DHT22;7262;48.764;9.166;2023-03-04T19:14:20;3.80;99.90
14357;DHT22;7262;48.764;9.166;2023-03-04T19:16:46;3.80;99.90
14357;DHT22;7262;48.764;9.166;2023-03-04T19:19:13;3.80;99.90
14357;DHT22;7262;48.764;9.166;2023-03-04T19:21:40;3.80;99.90
14357;DHT22;7262;48.764;9.166;2023-03-04T19:24:07;3.80;99.90
14357;DHT22;7262;48.764;9.166;2023-03-04T19:26:34;3.80;99.90
14357;DHT22;7262;48.764;9.166;2023-03-04T19:29:00;3.70;99.90
14357;DHT22;7262;48.764;9.166;2023-03-04T19:31:29;3.80;99.90
14357;DHT22;7262;48.764;9.166;2023-03-04T19:33:55;3.80;99.90
14357;DHT22;7262;48.764;9.166;2023-03-04T19:36:22;3.80;99.90
14357;DHT22;7262;48.764;9.166;2023-03-04T19:38:50;3.90;99.90
14357;DHT22;7262;48.764;9.166;2023-03-04T19:41:16;3.90;99.90
14357;DHT22;7262;48.764;9.166;2023-03-04T19:43:44;3.90;99.90
14357;DHT22;7262;48.764;9.166;2023-03-04T19:46:11;3.90;99.90
14357;DHT22;7262;48.764;9.166;2023-03-04T19:48:40;3.90;99.90
14357;DHT22;7262;48.764;9.166;2023-03-04T19:51:12;4.00;99.90
14357;DHT22;7262;48.764;9.166;2023-03-04T19:53:40;3.90;99.90
14357;DHT22;7262;48.764;9.166;2023-03-04T19:56:06;3.90;99.90
14357;DHT22;7262;48.764;9.166;2023-03-04T19:58:33;3.90;99.90
14357;DHT22;7262;48.764;9.166;2023-03-04T20:01:00;3.90;99.90
14357;DHT22;7262;48.764;9.166;2023-03-04T20:03:31;3.90;99.90
14357;DHT22;7262;48.764;9.166;2023-03-04T20:06:05;3.90;99.90
14357;DHT22;7262;48.764;9.166;2023-03-04T20:08:32;3.90;99.90
14357;DHT22;7262;48.764;9.166;2023-03-04T20:10:59;3.80;99.90
14357;DHT22;7262;48.764;9.166;2023-03-04T20:13:25;3.90;99.90
14357;DHT22;7262;48.764;9.166;2023-03-04T20:15:52;3.80;99.90
14357;DHT22;7262;48.764;9.166;2023-03-04T20:18:21;3.90;99.90
14357;DHT22;7262;48.764;9.166;2023-03-04T20:20:50;3.90;99.90
14357;DHT22;7262;48.764;9.166;2023-03-04T20:23:18;3.90;99.90
14357;DHT22;7262;48.764;9.166;2023-03-04T20:25:46;3.90;99.90
14357;DHT22;7262;48.764;9.166;2023-03-04T20:28:13;4.00;99.90
14357;DHT22;7262;48.764;9.166;2023-03-04T20:30:39;3.90;99.90
14357;DHT22;7262;48.764;9.166;2023-03-04T20:33:06;3.90;99.90
14357;DHT22;7262;48.764;9.166;2023-03-04T20:35:33;4.00;99.90
14357;DHT22;7262;48.764;9.166;2023-03-04T20:38:00;3.90;99.90
14357;DHT22;7262;48.764;9.166;2023-03-04T20:40:29;4.00;99.90
14357;DHT22;7262;48.764;9.166;2023-03-04T20:42:55;3.90;99.90
14357;DHT22;7262;48.764;9.166;2023-03-04T20:45:22;3.90;99.90
14357;DHT22;7262;48.764;9.166;2023-03-04T20:47:49;3.90;99.90
14357;DHT22;7262;48.764;9.166;2023-03-04T20:50:16;3.90;99.90
14357;DHT22;7262;48.764;9.166;2023-03-04T20:52:43;4.00;99.90